Flight Track Log - Related Links

Times and Time Zones

All times are in EDT time to prevent confusion due to time zone crossing. See the CSJ405 flight status page for this flight to view local times or setup timezone preferences in your user account.

Time Position Orientation Groundspeed Altitude Reporting Facility
EDT Latitude Longitude Course Direction KTS MPH feet Rate Location/Type
Wed 08:02:10 PM 40.8500 -74.2833 180° South 78 90 2,100  Level New York TRACON
Wed 08:03:10 PM 40.8167 -74.2833 180° South 85 98 3,300 1,200 Climbing New York TRACON
Wed 08:04:10 PM 40.8000 -74.2833 180° South 91 105 4,500 1,200 Climbing New York TRACON
Wed 08:05:10 PM 40.7833 -74.3167 237° Southwest 98 113 5,700 1,200 Climbing New York TRACON
Wed 08:06:10 PM 40.7833 -74.3500 270° West 97 112 6,900 1,150 Climbing New York TRACON
Wed 08:07:10 PM 40.8000 -74.3667 323° Northwest 94 108 8,000 1,050 Climbing New York TRACON
Wed 08:08:10 PM 40.8167 -74.3833 323° Northwest 89 102 9,000 500 Climbing New York TRACON
Wed 08:09:10 PM 40.8500 -74.4000 339° North 149 171 9,000  Level New York TRACON
Wed 08:10:10 PM 40.9000 -74.4000 360° North 171 197 9,000  Level New York TRACON
Wed 08:11:10 PM 40.9500 -74.4167 346° North 170 196 9,000  Level New York TRACON
Wed 08:12:10 PM 41.0000 -74.4333 346° North 171 197 9,000  Level New York TRACON
Wed 08:13:10 PM 41.0333 -74.4500 339° North 173 199 9,000  Level New York TRACON
Wed 08:14:10 PM 41.0833 -74.4667 346° North 175 201 9,000  Level New York TRACON
Wed 08:15:10 PM 41.1333 -74.4833 346° North 171 197 9,000 -24 Level New York TRACON
Wed 08:17:00 PM 41.1853 -74.5627 North  Level Estimated
Wed 08:24:00 PM 41.4369 -74.6531 305° West  Level FlightAware Approximate
Wed 08:25:00 PM 41.4617 -74.7003 305° West  Level FlightAware Approximate
Wed 08:26:00 PM 41.4647 -74.7597 274° West  Level FlightAware Approximate
Wed 08:27:00 PM 41.4924 -74.8063 323° Northwest  Level Estimated
Wed 08:28:00 PM 41.5249 -74.8472 317° Northwest  Level FlightAware Approximate
Wed 08:29:00 PM 41.5525 -74.8940 308° West  Level Estimated
Wed 08:30:00 PM 41.5812 -74.9397 310° West  Level FlightAware Approximate
Wed 08:31:00 PM 41.6098 -74.9854 310° West  Level FlightAware Approximate
Wed 08:32:00 PM 41.6385 -75.0312 310° West  Level FlightAware Approximate
Wed 08:33:00 PM 41.6671 -75.0770 310° West  Level FlightAware Approximate
Wed 08:34:00 PM 41.6956 -75.1228 310° West  Level FlightAware Approximate
Wed 08:35:00 PM 41.7231 -75.1699 308° West  Level Estimated
Wed 08:36:00 PM 41.7506 -75.2169 308° West  Level FlightAware Approximate
Wed 08:37:00 PM 41.7782 -75.2640 308° West  Level FlightAware Approximate
Wed 08:38:00 PM 41.8057 -75.3111 308° West  Level FlightAware Approximate
Wed 08:39:00 PM 41.8332 -75.3582 308° West  Level FlightAware Approximate
Wed 08:40:00 PM 41.8607 -75.4054 308° West  Level FlightAware Approximate
Wed 08:41:00 PM 41.8882 -75.4526 308° West  Level FlightAware Approximate
Wed 08:42:00 PM 41.9156 -75.4998 308° West  Level FlightAware Approximate
Wed 08:43:00 PM 41.9430 -75.5471 308° West  Level FlightAware Approximate
Wed 08:44:00 PM 41.9705 -75.5945 308° West  Level FlightAware Approximate
Wed 08:45:00 PM 41.9978 -75.6418 308° West  Level FlightAware Approximate
Wed 08:46:00 PM 42.0252 -75.6892 308° West  Level FlightAware Approximate
Wed 08:47:00 PM 42.0526 -75.7367 308° West  Level FlightAware Approximate
Wed 08:48:00 PM 42.0799 -75.7842 308° West  Level FlightAware Approximate
Wed 08:49:00 PM 42.1072 -75.8317 308° West  Level FlightAware Approximate
Wed 08:50:00 PM 42.1345 -75.8793 308° West  Level FlightAware Approximate
Wed 08:51:00 PM 42.1618 -75.9269 308° West  Level FlightAware Approximate
Wed 08:52:00 PM 42.1890 -75.9746 308° West  Level FlightAware Approximate
Wed 08:53:00 PM 42.2162 -76.0223 308° West  Level FlightAware Approximate
Wed 08:54:00 PM 42.2435 -76.0700 308° West  Level FlightAware Approximate
Wed 08:55:00 PM 42.2706 -76.1178 308° West  Level FlightAware Approximate
Wed 08:56:00 PM 42.2978 -76.1656 308° West  Level FlightAware Approximate
Wed 08:57:00 PM 42.3250 -76.2135 308° West  Level FlightAware Approximate
Wed 08:58:00 PM 42.3521 -76.2614 307° West  Level FlightAware Approximate
Wed 08:59:00 PM 42.3789 -76.3096 306° West  Level Estimated
Wed 09:00:00 PM 42.4053 -76.3584 306° West  Level FlightAware Approximate
Wed 09:00:31 PM 42.5536 -76.6453 306° West 174 200 7,900  Level Cleveland Center
Wed 09:01:00 PM 42.4316 -76.4071 306° West  Level FlightAware Approximate
Wed 09:01:20 PM 42.5781 -76.6917 306° West 176 203 8,000  Level Cleveland Center
Wed 09:02:00 PM 42.4579 -76.4559 306° West  Level FlightAware Approximate
Wed 09:02:20 PM 42.6089 -76.7433 309° West 175 201 7,900  Level Cleveland Center
Wed 09:03:00 PM 42.4842 -76.5048 306° West  Level FlightAware Approximate
Wed 09:03:21 PM 42.6358 -76.7981 304° West 175 201 8,000  Level Cleveland Center
Wed 09:04:00 PM 42.5105 -76.5537 306° West  Level FlightAware Approximate
Wed 09:04:22 PM 42.6667 -76.8528 307° West 174 200 7,900  Level Cleveland Center
Wed 09:05:00 PM 42.5368 -76.6026 306° West  Level FlightAware Approximate
Wed 09:05:22 PM 42.6975 -76.9047 309° West 174 200 8,000  Level Cleveland Center
Wed 09:06:23 PM 42.7264 -76.9567 307° West 175 201 8,000 -99 Level Cleveland Center
Wed 09:07:23 PM 42.7553 -77.0117 306° West 175 201 7,800 -595 Descending Cleveland Center
Wed 09:08:24 PM 42.7881 -77.0664 309° West 195 224 6,800 -885 Descending Cleveland Center
Wed 09:09:25 PM 42.8211 -77.1267 307° West 196 226 6,000 -744 Descending Cleveland Center
Wed 09:10:25 PM 42.8542 -77.1844 308° West 188 216 5,300 -645 Descending Cleveland Center
Wed 09:11:26 PM 42.8872 -77.2450 307° West 189 217 4,700 -590 Descending Cleveland Center
Wed 09:12:27 PM 42.9181 -77.3028 306° West 190 219 4,100 -347 Descending Cleveland Center
Wed 09:13:27 PM 42.9467 -77.3608 304° West 182 209 4,000 -198 Descending Cleveland Center
Wed 09:14:28 PM 42.9775 -77.4133 309° West 182 209 3,700 -375 Descending Cleveland Center
Wed 09:15:35 PM 43.0125 -77.4739 308° West 190 219 3,200 -520 Descending Cleveland Center
Wed 09:16:35 PM 43.0475 -77.5375 307° West 192 221 2,600 -645 Descending Cleveland Center
Wed 09:17:36 PM 43.0761 -77.5989 303° West 195 224 1,900 -689 Descending Cleveland Center

Login

Don't have an account? Register now (free) for customized features, flight alerts, and more!